createdAt,value
2018-07-11T00:00:11.178Z,0
2018-07-11T00:00:51.756Z,0
2018-07-11T00:01:32.327Z,0
2018-07-11T00:02:12.906Z,0
2018-07-11T00:02:53.475Z,0
2018-07-11T00:03:34.036Z,0
2018-07-11T00:04:14.645Z,0
2018-07-11T00:04:55.171Z,0
2018-07-11T00:05:35.744Z,0
2018-07-11T00:06:16.309Z,0
2018-07-11T00:06:56.890Z,0
2018-07-11T00:07:37.452Z,0
2018-07-11T00:08:18.032Z,0
2018-07-11T00:08:58.612Z,0
2018-07-11T00:09:39.166Z,0
2018-07-11T00:10:19.739Z,0
2018-07-11T00:11:00.305Z,0
2018-07-11T00:11:40.877Z,0
2018-07-11T00:12:21.432Z,0
2018-07-11T00:13:02.002Z,0
2018-07-11T00:13:42.568Z,0
2018-07-11T00:14:23.139Z,0
2018-07-11T00:15:03.822Z,0
2018-07-11T00:15:44.261Z,0
2018-07-11T00:16:24.831Z,0
2018-07-11T00:17:05.410Z,0
2018-07-11T00:17:45.982Z,0
2018-07-11T00:18:26.537Z,0
2018-07-11T00:19:07.109Z,0
2018-07-11T00:19:47.698Z,0
2018-07-11T00:20:28.260Z,0
2018-07-11T00:21:08.823Z,0
2018-07-11T00:21:49.373Z,0
2018-07-11T00:22:29.922Z,0
2018-07-11T00:23:10.488Z,0
2018-07-11T00:23:51.067Z,0
2018-07-11T00:24:31.646Z,0
2018-07-11T00:25:12.209Z,0
2018-07-11T00:25:52.779Z,0
2018-07-11T00:26:33.333Z,0
2018-07-11T00:27:13.886Z,0
2018-07-11T00:27:54.437Z,0
2018-07-11T00:28:35.004Z,0
2018-07-11T00:29:15.582Z,0
2018-07-11T00:29:56.159Z,0
2018-07-11T00:30:36.721Z,0
2018-07-11T00:31:17.308Z,0
2018-07-11T00:31:57.878Z,0
2018-07-11T00:32:38.463Z,0
2018-07-11T00:33:19.039Z,0
2018-07-11T00:33:59.593Z,0
2018-07-11T00:34:40.151Z,0
2018-07-11T00:35:20.717Z,0
2018-07-11T00:36:01.273Z,0
2018-07-11T00:36:41.828Z,0
2018-07-11T00:37:22.517Z,0
2018-07-11T00:38:02.962Z,0
2018-07-11T00:38:43.538Z,0
2018-07-11T00:39:24.083Z,0
2018-07-11T00:40:04.646Z,0
2018-07-11T00:40:45.228Z,0
2018-07-11T00:41:25.757Z,0
2018-07-11T00:42:06.324Z,0
2018-07-11T00:42:46.883Z,0
2018-07-11T00:43:27.444Z,0
2018-07-11T00:44:08.000Z,0
2018-07-11T00:44:48.583Z,0
2018-07-11T00:45:29.161Z,0
2018-07-11T00:46:09.709Z,0
2018-07-11T00:46:50.271Z,0
2018-07-11T00:47:30.847Z,0
2018-07-11T00:48:11.408Z,0
2018-07-11T00:48:51.971Z,0
2018-07-11T00:49:32.534Z,0
2018-07-11T00:50:13.120Z,0
2018-07-11T00:50:53.690Z,0
2018-07-11T00:51:34.250Z,0
2018-07-11T00:52:14.841Z,0
2018-07-11T00:52:55.400Z,0
2018-07-11T00:53:35.967Z,0
2018-07-11T00:54:16.538Z,0
2018-07-11T00:54:57.108Z,0
2018-07-11T00:55:37.693Z,0
2018-07-11T00:56:18.280Z,0
2018-07-11T00:56:58.846Z,0
2018-07-11T00:57:39.417Z,0
2018-07-11T00:58:19.989Z,0
2018-07-11T00:59:00.556Z,0
2018-07-11T00:59:41.112Z,0
2018-07-11T01:00:21.669Z,0
2018-07-11T01:01:02.231Z,0
2018-07-11T01:01:42.782Z,0
2018-07-11T01:02:23.352Z,0
2018-07-11T01:03:03.921Z,0
2018-07-11T01:03:44.498Z,0
2018-07-11T01:04:25.047Z,0
2018-07-11T01:05:05.616Z,0
2018-07-11T01:05:46.196Z,0
2018-07-11T01:06:26.760Z,0
2018-07-11T01:07:07.331Z,0
2018-07-11T01:07:47.896Z,0
2018-07-11T01:08:28.461Z,0
2018-07-11T01:09:09.018Z,0
2018-07-11T01:09:49.590Z,0
2018-07-11T01:10:30.152Z,0
2018-07-11T01:11:10.703Z,0
2018-07-11T01:11:51.255Z,0
2018-07-11T01:12:31.818Z,0
2018-07-11T01:13:12.385Z,0
2018-07-11T01:13:52.969Z,0
2018-07-11T01:14:33.534Z,0
2018-07-11T01:15:14.084Z,0
2018-07-11T01:15:54.645Z,0
2018-07-11T01:16:35.212Z,0
2018-07-11T01:17:15.776Z,0
2018-07-11T01:17:56.355Z,0
2018-07-11T01:18:36.909Z,0
2018-07-11T01:19:17.474Z,0
2018-07-11T01:19:58.048Z,0
2018-07-11T01:20:38.607Z,0
2018-07-11T01:21:19.211Z,0
2018-07-11T01:21:59.768Z,0
2018-07-11T01:22:40.338Z,0
2018-07-11T01:23:20.912Z,0
2018-07-11T01:24:01.481Z,0
2018-07-11T01:24:42.050Z,0
2018-07-11T01:25:22.639Z,0
2018-07-11T01:26:03.235Z,0
2018-07-11T01:26:43.771Z,0
2018-07-11T01:27:24.318Z,0
2018-07-11T01:28:04.872Z,0
2018-07-11T01:28:45.451Z,0
2018-07-11T01:29:26.011Z,0
2018-07-11T01:30:06.576Z,0
2018-07-11T01:30:47.162Z,0
2018-07-11T01:31:27.737Z,0
2018-07-11T01:32:08.316Z,0
2018-07-11T01:32:48.875Z,0
2018-07-11T01:33:29.428Z,0
2018-07-11T01:34:10.004Z,0
2018-07-11T01:34:50.560Z,0
2018-07-11T01:35:31.120Z,0
2018-07-11T01:36:11.675Z,0
2018-07-11T01:36:52.236Z,0
2018-07-11T01:37:32.785Z,0
2018-07-11T01:38:13.349Z,0
2018-07-11T01:38:53.936Z,0
2018-07-11T01:39:34.502Z,0
2018-07-11T01:40:15.079Z,0
2018-07-11T01:40:55.635Z,0
2018-07-11T01:41:36.192Z,0
2018-07-11T01:42:16.744Z,0
2018-07-11T01:42:57.308Z,0
2018-07-11T01:43:37.880Z,0
2018-07-11T01:44:18.450Z,0
2018-07-11T01:44:59.008Z,0
2018-07-11T01:45:39.584Z,0
2018-07-11T01:46:20.151Z,0
2018-07-11T01:47:00.711Z,0
2018-07-11T01:47:41.277Z,0
2018-07-11T01:48:21.844Z,0
2018-07-11T01:49:02.428Z,0
2018-07-11T01:49:42.986Z,0
2018-07-11T01:50:23.548Z,0
2018-07-11T01:51:04.128Z,0
2018-07-11T01:51:44.688Z,0
2018-07-11T01:52:25.265Z,0
2018-07-11T01:53:05.826Z,0
2018-07-11T01:53:46.404Z,0
2018-07-11T01:54:26.974Z,0
2018-07-11T01:55:07.537Z,0
2018-07-11T01:55:48.099Z,0
2018-07-11T01:56:28.657Z,0
2018-07-11T01:57:09.245Z,0
2018-07-11T01:57:49.801Z,0
2018-07-11T01:58:30.359Z,0
2018-07-11T01:59:10.912Z,0
2018-07-11T01:59:51.458Z,0
2018-07-11T02:00:32.032Z,0
2018-07-11T02:01:12.606Z,0
2018-07-11T02:01:53.162Z,0
2018-07-11T02:02:33.739Z,0
2018-07-11T02:03:14.303Z,0
2018-07-11T02:03:54.864Z,0
2018-07-11T02:04:35.426Z,0
2018-07-11T02:05:15.989Z,0
2018-07-11T02:05:56.557Z,0
2018-07-11T02:06:37.137Z,0
2018-07-11T02:07:17.700Z,0
2018-07-11T02:07:58.279Z,0
2018-07-11T02:08:38.833Z,0
2018-07-11T02:09:19.395Z,0
2018-07-11T02:09:59.966Z,0
2018-07-11T02:10:40.523Z,0
2018-07-11T02:11:21.090Z,0
2018-07-11T02:12:01.679Z,0
2018-07-11T02:12:42.232Z,0
2018-07-11T02:13:22.794Z,0
2018-07-11T02:14:03.354Z,0
2018-07-11T02:14:43.927Z,0
2018-07-11T02:15:24.516Z,0
2018-07-11T02:16:05.082Z,0
2018-07-11T02:16:45.633Z,0
2018-07-11T02:17:26.217Z,0
2018-07-11T02:18:06.784Z,0
2018-07-11T02:18:47.362Z,0
2018-07-11T02:19:27.942Z,0
2018-07-11T02:20:08.511Z,0
2018-07-11T02:20:49.063Z,0
2018-07-11T02:21:29.636Z,0
2018-07-11T02:22:10.195Z,0
2018-07-11T02:22:50.781Z,0
2018-07-11T02:23:31.343Z,0
2018-07-11T02:24:11.896Z,0
2018-07-11T02:24:52.477Z,0
2018-07-11T02:25:33.031Z,0
2018-07-11T02:26:13.596Z,0
2018-07-11T02:26:54.173Z,0
2018-07-11T02:27:34.740Z,0
2018-07-11T02:28:15.312Z,0
2018-07-11T02:28:55.855Z,0
2018-07-11T02:29:36.430Z,0
2018-07-11T02:30:17.001Z,0
2018-07-11T02:30:57.568Z,0
2018-07-11T02:31:38.130Z,0
2018-07-11T02:32:18.691Z,0
2018-07-11T02:32:59.257Z,0
2018-07-11T02:33:39.820Z,0
2018-07-11T02:34:20.375Z,0
2018-07-11T02:35:00.952Z,0
2018-07-11T02:35:41.507Z,0
2018-07-11T02:36:22.064Z,0
2018-07-11T02:37:02.634Z,0
2018-07-11T02:37:43.177Z,0
2018-07-11T02:38:23.752Z,0
2018-07-11T02:39:04.313Z,0
2018-07-11T02:39:44.868Z,0
2018-07-11T02:40:25.419Z,0
2018-07-11T02:41:05.991Z,0
2018-07-11T02:41:46.553Z,0
2018-07-11T02:42:27.129Z,0
2018-07-11T02:43:07.698Z,0
2018-07-11T02:43:48.249Z,0
2018-07-11T02:44:28.821Z,0
2018-07-11T02:45:09.380Z,0
2018-07-11T02:45:49.950Z,0
2018-07-11T02:46:30.547Z,0
2018-07-11T02:47:11.112Z,0
2018-07-11T02:47:51.678Z,0
2018-07-11T02:48:32.239Z,0
2018-07-11T02:49:12.811Z,0
2018-07-11T02:49:53.375Z,0
2018-07-11T02:50:33.952Z,0
2018-07-11T02:51:14.517Z,0
2018-07-11T02:51:55.072Z,0
2018-07-11T02:52:35.638Z,0
2018-07-11T02:53:16.186Z,0
2018-07-11T02:53:56.755Z,0
2018-07-11T02:54:37.309Z,0
2018-07-11T02:55:17.888Z,0
2018-07-11T02:55:58.463Z,0
2018-07-11T02:56:39.024Z,0
2018-07-11T02:57:19.593Z,0
2018-07-11T02:58:00.162Z,0
2018-07-11T02:58:40.760Z,0
2018-07-11T02:59:21.319Z,0
2018-07-11T03:00:01.889Z,0
2018-07-11T03:00:42.438Z,0
2018-07-11T03:01:22.997Z,0
2018-07-11T03:02:03.557Z,0
2018-07-11T03:02:44.124Z,0
2018-07-11T03:03:24.692Z,0
2018-07-11T03:04:05.253Z,0
2018-07-11T03:04:45.823Z,0
2018-07-11T03:05:26.393Z,0
2018-07-11T03:06:06.956Z,0
2018-07-11T03:06:47.531Z,0
2018-07-11T03:07:28.076Z,0
2018-07-11T03:08:08.651Z,0
2018-07-11T03:08:49.214Z,0
2018-07-11T03:09:29.782Z,0
2018-07-11T03:10:10.345Z,0
2018-07-11T03:10:50.910Z,0
2018-07-11T03:11:31.453Z,0
2018-07-11T03:12:12.019Z,0
2018-07-11T03:12:52.574Z,0
2018-07-11T03:13:33.140Z,0
2018-07-11T03:14:13.705Z,0
2018-07-11T03:14:54.273Z,0
2018-07-11T03:15:34.838Z,0
2018-07-11T03:16:15.414Z,0
2018-07-11T03:16:55.962Z,0
2018-07-11T03:17:36.527Z,0
2018-07-11T03:18:17.102Z,0
2018-07-11T03:18:57.664Z,0
2018-07-11T03:19:38.219Z,0
2018-07-11T03:20:18.784Z,0
2018-07-11T03:20:59.362Z,0
2018-07-11T03:21:39.914Z,0
2018-07-11T03:22:20.494Z,0
2018-07-11T03:23:01.047Z,0
2018-07-11T03:23:41.611Z,0
2018-07-11T03:24:22.152Z,0
2018-07-11T03:25:02.716Z,0
2018-07-11T03:25:43.275Z,0
2018-07-11T03:26:23.853Z,0
2018-07-11T03:27:04.422Z,0
2018-07-11T03:27:44.980Z,0
2018-07-11T03:28:25.537Z,0
2018-07-11T03:29:06.089Z,0
2018-07-11T03:29:46.660Z,0
2018-07-11T03:30:27.210Z,0
2018-07-11T03:31:07.784Z,0
2018-07-11T03:31:48.338Z,0
2018-07-11T03:32:28.962Z,0
2018-07-11T03:33:09.466Z,0
2018-07-11T03:33:50.025Z,5
2018-07-11T03:34:30.621Z,5
2018-07-11T03:35:11.162Z,5
2018-07-11T03:35:51.737Z,5
2018-07-11T03:36:32.310Z,5
2018-07-11T03:37:12.876Z,5
2018-07-11T03:37:53.442Z,5
2018-07-11T03:38:33.994Z,5
2018-07-11T03:39:14.549Z,5
2018-07-11T03:39:55.105Z,5
2018-07-11T03:40:35.671Z,5
2018-07-11T03:41:16.244Z,5
2018-07-11T03:41:56.818Z,5
2018-07-11T03:42:37.383Z,5
2018-07-11T03:43:17.945Z,5
2018-07-11T03:43:58.497Z,5
2018-07-11T03:44:39.071Z,5
2018-07-11T03:45:19.628Z,5
2018-07-11T03:46:00.197Z,5
2018-07-11T03:46:40.760Z,5
2018-07-11T03:47:21.333Z,5
2018-07-11T03:48:01.912Z,5
2018-07-11T03:48:42.459Z,10
2018-07-11T03:49:23.012Z,10
2018-07-11T03:50:03.578Z,10
2018-07-11T03:50:44.148Z,10
2018-07-11T03:51:24.714Z,10
2018-07-11T03:52:05.287Z,10
2018-07-11T03:52:45.849Z,15
2018-07-11T03:53:26.409Z,15
2018-07-11T03:54:06.968Z,15
2018-07-11T03:54:47.558Z,15
2018-07-11T03:55:28.118Z,15
2018-07-11T03:56:08.692Z,15
2018-07-11T03:56:49.261Z,15
2018-07-11T03:57:29.823Z,15
2018-07-11T03:58:10.385Z,15
2018-07-11T03:58:50.947Z,15
2018-07-11T03:59:31.509Z,15
2018-07-11T04:00:12.064Z,15
2018-07-11T04:00:52.639Z,15
2018-07-11T04:01:33.201Z,15
2018-07-11T04:02:13.769Z,15
2018-07-11T04:02:54.327Z,15
2018-07-11T04:03:34.892Z,15
2018-07-11T04:04:15.460Z,15
2018-07-11T04:04:56.103Z,15
2018-07-11T04:05:36.620Z,10
2018-07-11T04:06:17.177Z,10
2018-07-11T04:06:57.741Z,10
2018-07-11T04:07:38.295Z,10
2018-07-11T04:08:18.836Z,10
2018-07-11T04:08:59.405Z,10
2018-07-11T04:09:39.969Z,10
2018-07-11T04:10:20.536Z,10
2018-07-11T04:11:01.117Z,10
2018-07-11T04:11:41.677Z,10
2018-07-11T04:12:22.242Z,10
2018-07-11T04:13:02.808Z,10
2018-07-11T04:13:43.370Z,10
2018-07-11T04:14:23.941Z,15
2018-07-11T04:15:04.518Z,15
2018-07-11T04:15:45.077Z,15
2018-07-11T04:16:25.644Z,15
2018-07-11T04:17:06.198Z,15
2018-07-11T04:17:46.760Z,15
2018-07-11T04:18:27.331Z,15
2018-07-11T04:19:07.894Z,15
2018-07-11T04:19:48.466Z,15
2018-07-11T04:20:29.030Z,15
2018-07-11T04:21:09.601Z,15
2018-07-11T04:21:50.157Z,15
2018-07-11T04:22:30.719Z,15
2018-07-11T04:23:11.291Z,15
2018-07-11T04:23:51.878Z,15
2018-07-11T04:24:32.432Z,15
2018-07-11T04:25:12.998Z,15
2018-07-11T04:25:53.574Z,15
2018-07-11T04:26:34.116Z,15
2018-07-11T04:27:14.694Z,15
2018-07-11T04:27:55.260Z,15
2018-07-11T04:28:35.838Z,15
2018-07-11T04:29:16.402Z,15
2018-07-11T04:29:56.963Z,15
2018-07-11T04:30:37.518Z,15
2018-07-11T04:31:18.078Z,15
2018-07-11T04:31:58.635Z,15
2018-07-11T04:32:39.188Z,15
2018-07-11T04:33:19.830Z,15
2018-07-11T04:34:00.341Z,20
2018-07-11T04:34:40.975Z,20
2018-07-11T04:35:21.485Z,20
2018-07-11T04:36:02.070Z,20
2018-07-11T04:36:42.640Z,20
2018-07-11T04:37:23.208Z,20
2018-07-11T04:38:03.779Z,25
2018-07-11T04:38:44.332Z,25
2018-07-11T04:39:24.901Z,25
2018-07-11T04:40:05.451Z,25
2018-07-11T04:40:46.041Z,25
2018-07-11T04:41:26.605Z,25
2018-07-11T04:42:07.227Z,25
2018-07-11T04:42:47.768Z,30
2018-07-11T04:43:28.332Z,30
2018-07-11T04:44:08.893Z,30
2018-07-11T04:44:49.469Z,35
2018-07-11T04:45:30.043Z,35
2018-07-11T04:46:10.610Z,40
2018-07-11T04:46:51.182Z,45
2018-07-11T04:47:31.752Z,45
2018-07-11T04:48:12.324Z,50
2018-07-11T04:48:52.875Z,50
2018-07-11T04:49:33.440Z,50
2018-07-11T04:50:13.995Z,50
2018-07-11T04:50:54.544Z,50
2018-07-11T04:51:35.112Z,50
2018-07-11T04:52:15.694Z,50
2018-07-11T04:52:56.279Z,50
2018-07-11T04:53:36.850Z,55
2018-07-11T04:54:17.408Z,60
2018-07-11T04:54:57.961Z,65
2018-07-11T04:55:38.508Z,70
2018-07-11T04:56:19.067Z,70
2018-07-11T04:56:59.627Z,75
2018-07-11T04:57:40.183Z,75
2018-07-11T04:58:20.749Z,85
2018-07-11T04:59:01.319Z,80
2018-07-11T04:59:41.892Z,80
2018-07-11T05:00:22.459Z,85
2018-07-11T05:01:03.011Z,85
2018-07-11T05:01:43.584Z,85
2018-07-11T05:02:24.116Z,85
2018-07-11T05:03:04.661Z,80
2018-07-11T05:03:45.218Z,80
2018-07-11T05:04:25.758Z,75
2018-07-11T05:05:06.316Z,70
2018-07-11T05:05:46.864Z,65
2018-07-11T05:06:27.416Z,65
2018-07-11T05:07:07.970Z,65
2018-07-11T05:07:48.541Z,60
2018-07-11T05:08:29.097Z,60
2018-07-11T05:09:09.666Z,60
2018-07-11T05:09:50.235Z,55
2018-07-11T05:10:30.795Z,50
2018-07-11T05:11:11.459Z,50
2018-07-11T05:11:51.932Z,50
2018-07-11T05:12:32.498Z,50
2018-07-11T05:13:13.065Z,50
2018-07-11T05:13:53.625Z,50
2018-07-11T05:14:34.198Z,50
2018-07-11T05:15:14.787Z,50
2018-07-11T05:15:55.371Z,55
2018-07-11T05:16:35.947Z,55
2018-07-11T05:17:16.512Z,55
2018-07-11T05:17:57.083Z,55
2018-07-11T05:18:37.645Z,55
2018-07-11T05:19:18.211Z,55
2018-07-11T05:19:58.778Z,55
2018-07-11T05:20:39.361Z,60
2018-07-11T05:21:19.921Z,60
2018-07-11T05:22:00.480Z,60
2018-07-11T05:22:41.036Z,65
2018-07-11T05:23:21.584Z,65
2018-07-11T05:24:02.138Z,65
2018-07-11T05:24:42.692Z,65
2018-07-11T05:25:23.278Z,65
2018-07-11T05:26:03.839Z,70
2018-07-11T05:26:44.404Z,70
2018-07-11T05:27:24.965Z,70
2018-07-11T05:28:05.535Z,75
2018-07-11T05:28:46.080Z,75
2018-07-11T05:29:26.650Z,85
2018-07-11T05:30:07.209Z,100
2018-07-11T05:30:47.768Z,125
2018-07-11T05:31:28.323Z,140
2018-07-11T05:32:08.891Z,180
2018-07-11T05:32:49.460Z,215
2018-07-11T05:33:30.039Z,170
2018-07-11T05:34:10.612Z,150
2018-07-11T05:34:51.182Z,150
2018-07-11T05:35:31.742Z,160
2018-07-11T05:36:12.348Z,180
2018-07-11T05:36:52.853Z,195
2018-07-11T05:37:33.556Z,140
2018-07-11T05:38:14.115Z,110
2018-07-11T05:38:54.685Z,95
2018-07-11T05:39:35.283Z,85
2018-07-11T05:40:15.866Z,85
2018-07-11T05:40:56.431Z,85
2018-07-11T05:41:36.993Z,85
2018-07-11T05:42:17.563Z,90
2018-07-11T05:42:58.119Z,95
2018-07-11T05:43:38.682Z,110
2018-07-11T05:44:19.248Z,155
2018-07-11T05:44:59.797Z,130
2018-07-11T05:45:40.361Z,145
2018-07-11T05:46:20.924Z,165
2018-07-11T05:47:01.543Z,200
2018-07-11T05:47:42.117Z,260
2018-07-11T05:48:22.675Z,205
2018-07-11T05:49:03.250Z,215
2018-07-11T05:49:43.800Z,380
2018-07-11T05:50:24.377Z,245
2018-07-11T05:51:04.938Z,375
2018-07-11T05:51:45.523Z,215
2018-07-11T05:52:26.076Z,200
2018-07-11T05:53:06.638Z,210
2018-07-11T05:53:47.198Z,225
2018-07-11T05:54:27.819Z,230
2018-07-11T05:55:08.383Z,245
2018-07-11T05:55:48.944Z,285
2018-07-11T05:56:29.532Z,350
2018-07-11T05:57:10.102Z,370
2018-07-11T05:57:50.666Z,390
2018-07-11T05:58:31.222Z,505
2018-07-11T05:59:11.795Z,775
2018-07-11T05:59:52.384Z,460
2018-07-11T06:00:32.939Z,385
2018-07-11T06:01:13.510Z,430
2018-07-11T06:01:54.073Z,400
2018-07-11T06:02:34.654Z,435
2018-07-11T06:03:15.195Z,740
2018-07-11T06:03:55.751Z,895
2018-07-11T06:04:36.313Z,855
2018-07-11T06:05:16.888Z,785
2018-07-11T06:05:57.464Z,1815
2018-07-11T06:06:38.016Z,1905
2018-07-11T06:07:18.569Z,725
2018-07-11T06:07:59.142Z,825
2018-07-11T06:08:39.717Z,715
2018-07-11T06:09:20.278Z,1510
2018-07-11T06:10:00.847Z,500
2018-07-11T06:10:41.407Z,385
2018-07-11T06:11:22.004Z,440
2018-07-11T06:12:02.573Z,570
2018-07-11T06:12:43.136Z,925
2018-07-11T06:13:23.759Z,515
2018-07-11T06:14:04.258Z,435
2018-07-11T06:14:44.831Z,990
2018-07-11T06:15:25.417Z,425
2018-07-11T06:16:05.975Z,435
2018-07-11T06:16:46.540Z,370
2018-07-11T06:17:27.610Z,425
2018-07-11T06:18:08.172Z,895
2018-07-11T06:18:48.746Z,360
2018-07-11T06:19:29.397Z,330
2018-07-11T06:20:09.997Z,545
2018-07-11T06:20:50.522Z,355
2018-07-11T06:21:31.100Z,395
2018-07-11T06:22:11.671Z,390
2018-07-11T06:22:52.266Z,495
2018-07-11T06:23:32.853Z,410
2018-07-11T06:24:13.414Z,450
2018-07-11T06:24:53.991Z,385
2018-07-11T06:25:34.563Z,380
2018-07-11T06:26:15.128Z,380
2018-07-11T06:26:55.698Z,425
2018-07-11T06:27:36.263Z,465
2018-07-11T06:28:16.826Z,335
2018-07-11T06:28:57.389Z,350
2018-07-11T06:29:37.974Z,425
2018-07-11T06:30:18.548Z,425
2018-07-11T06:30:59.109Z,390
2018-07-11T06:31:39.667Z,430
2018-07-11T06:32:20.259Z,425
2018-07-11T06:33:00.794Z,490
2018-07-11T06:33:41.401Z,585
2018-07-11T06:34:21.899Z,455
2018-07-11T06:35:02.470Z,510
2018-07-11T06:35:43.045Z,520
2018-07-11T06:36:23.614Z,430
2018-07-11T06:37:04.167Z,410
2018-07-11T06:37:44.780Z,465
2018-07-11T06:38:25.281Z,710
2018-07-11T06:39:05.836Z,530
2018-07-11T06:39:46.719Z,455
2018-07-11T06:40:27.274Z,390
2018-07-11T06:41:07.846Z,400
2018-07-11T06:41:48.417Z,380
2018-07-11T06:42:28.988Z,390
2018-07-11T06:43:09.548Z,430
2018-07-11T06:43:50.112Z,585
2018-07-11T06:44:30.766Z,580
2018-07-11T06:45:11.274Z,790
2018-07-11T06:45:51.838Z,760
2018-07-11T06:46:32.420Z,670
2018-07-11T06:47:13.048Z,905
2018-07-11T06:47:53.627Z,1705
2018-07-11T06:48:34.133Z,2190
2018-07-11T06:49:14.682Z,2100
2018-07-11T06:49:55.246Z,1375
2018-07-11T06:50:35.812Z,1550
2018-07-11T06:51:16.371Z,865
2018-07-11T06:51:56.959Z,710
2018-07-11T06:52:37.597Z,720
2018-07-11T06:53:18.109Z,825
2018-07-11T06:53:58.709Z,955
2018-07-11T06:54:39.280Z,1385
2018-07-11T06:55:19.940Z,2120
2018-07-11T06:56:00.536Z,2270
2018-07-11T06:56:41.085Z,1175
2018-07-11T06:57:21.649Z,1020
2018-07-11T06:58:02.241Z,1085
2018-07-11T06:58:42.806Z,945
2018-07-11T06:59:23.364Z,1625
2018-07-11T07:00:03.958Z,1580
2018-07-11T07:00:44.547Z,1415
2018-07-11T07:01:25.111Z,2035
2018-07-11T07:02:05.685Z,2045
2018-07-11T07:02:46.242Z,1960
2018-07-11T07:03:26.876Z,2065
2018-07-11T07:04:07.442Z,2015
2018-07-11T07:04:47.984Z,2035
2018-07-11T07:05:28.554Z,2120
2018-07-11T07:06:09.138Z,2010
2018-07-11T07:06:49.731Z,1980
2018-07-11T07:07:30.294Z,1955
2018-07-11T07:08:10.869Z,1980
2018-07-11T07:08:51.429Z,1975
2018-07-11T07:09:32.006Z,1840
2018-07-11T07:10:12.572Z,1865
2018-07-11T07:10:53.127Z,1815
2018-07-11T07:11:33.704Z,1625
2018-07-11T07:12:14.279Z,1670
2018-07-11T07:12:54.855Z,1330
2018-07-11T07:13:35.472Z,950
2018-07-11T07:14:16.031Z,560
2018-07-11T07:14:56.594Z,1020
2018-07-11T07:15:37.173Z,745
2018-07-11T07:16:17.737Z,660
2018-07-11T07:16:58.310Z,690
2018-07-11T07:17:38.887Z,900
2018-07-11T07:18:19.465Z,725
2018-07-11T07:19:00.018Z,675
2018-07-11T07:19:40.589Z,575
2018-07-11T07:20:21.160Z,720
2018-07-11T07:21:01.716Z,665
2018-07-11T07:21:42.286Z,500
2018-07-11T07:22:22.911Z,475
2018-07-11T07:23:03.464Z,580
2018-07-11T07:23:44.025Z,405
2018-07-11T07:24:24.598Z,415
2018-07-11T07:25:05.177Z,295
2018-07-11T07:25:45.739Z,290
2018-07-11T07:26:26.321Z,255
2018-07-11T07:27:06.900Z,300
2018-07-11T07:27:47.475Z,330
2018-07-11T07:28:28.056Z,330
2018-07-11T07:29:08.772Z,305
2018-07-11T07:29:49.189Z,275
2018-07-11T07:30:29.738Z,265
2018-07-11T07:31:10.314Z,265
2018-07-11T07:31:50.878Z,265
2018-07-11T07:32:31.446Z,265
2018-07-11T07:33:12.008Z,265
2018-07-11T07:33:52.561Z,260
2018-07-11T07:34:33.145Z,255
2018-07-11T07:35:13.749Z,250
2018-07-11T07:35:54.326Z,240
2018-07-11T07:36:34.896Z,235
2018-07-11T07:37:15.474Z,235
2018-07-11T07:37:56.051Z,240
2018-07-11T07:38:36.655Z,250
2018-07-11T07:39:17.183Z,265
2018-07-11T07:39:57.749Z,325
2018-07-11T07:40:38.319Z,380
2018-07-11T07:41:18.899Z,450
2018-07-11T07:41:59.452Z,400
2018-07-11T07:42:40.026Z,425
2018-07-11T07:43:20.610Z,420
2018-07-11T07:44:01.173Z,440
2018-07-11T07:44:41.757Z,545
2018-07-11T07:45:22.343Z,480
2018-07-11T07:46:02.938Z,565
2018-07-11T07:46:43.500Z,595
2018-07-11T07:47:24.108Z,545
2018-07-11T07:48:04.641Z,545
2018-07-11T07:48:45.263Z,555
2018-07-11T07:49:25.834Z,580
2018-07-11T07:50:06.397Z,580
2018-07-11T07:50:46.967Z,400
2018-07-11T07:51:27.534Z,255
2018-07-11T07:52:08.115Z,240
2018-07-11T07:52:48.694Z,230
2018-07-11T07:53:29.241Z,225
2018-07-11T07:54:09.808Z,220
2018-07-11T07:54:50.383Z,225
2018-07-11T07:55:30.971Z,235
2018-07-11T07:56:11.523Z,235
2018-07-11T07:56:52.097Z,240
2018-07-11T07:57:32.651Z,280
2018-07-11T07:58:13.249Z,515
2018-07-11T07:58:53.833Z,610
2018-07-11T07:59:34.406Z,615
2018-07-11T08:00:14.983Z,605
2018-07-11T08:00:55.555Z,595
2018-07-11T08:01:36.135Z,590
2018-07-11T08:02:16.707Z,590
2018-07-11T08:02:57.271Z,570
2018-07-11T08:03:37.859Z,560
2018-07-11T08:04:18.427Z,535
2018-07-11T08:04:58.990Z,510
2018-07-11T08:05:39.569Z,485
2018-07-11T08:06:20.125Z,475
2018-07-11T08:07:00.759Z,405
2018-07-11T08:07:41.302Z,455
2018-07-11T08:08:21.867Z,245
2018-07-11T08:09:02.418Z,235
2018-07-11T08:09:42.979Z,235
2018-07-11T08:10:23.589Z,220
2018-07-11T08:11:04.187Z,210
2018-07-11T08:11:44.794Z,215
2018-07-11T08:12:25.414Z,215
2018-07-11T08:13:05.947Z,175
2018-07-11T08:13:46.527Z,165
2018-07-11T08:14:27.134Z,155
2018-07-11T08:15:07.701Z,145
2018-07-11T08:15:48.258Z,140
2018-07-11T08:16:28.885Z,140
2018-07-11T08:17:09.479Z,140
2018-07-11T08:17:50.051Z,145
2018-07-11T08:18:30.608Z,150
2018-07-11T08:19:11.294Z,155
2018-07-11T08:19:51.937Z,160
2018-07-11T08:20:32.548Z,160
2018-07-11T08:21:13.126Z,165
2018-07-11T08:21:53.699Z,175
2018-07-11T08:22:34.256Z,175
2018-07-11T08:23:14.845Z,175
2018-07-11T08:23:55.417Z,180
2018-07-11T08:24:36.346Z,180
2018-07-11T08:25:16.959Z,180
2018-07-11T08:25:57.492Z,175
2018-07-11T08:26:38.068Z,170
2018-07-11T08:27:18.659Z,165
2018-07-11T08:27:59.190Z,160
2018-07-11T08:28:39.771Z,150
2018-07-11T08:29:20.378Z,140
2018-07-11T08:30:00.921Z,135
2018-07-11T08:30:41.475Z,130
2018-07-11T08:31:22.028Z,130
2018-07-11T08:32:02.599Z,130
2018-07-11T08:32:43.128Z,125
2018-07-11T08:33:23.695Z,125
2018-07-11T08:34:04.259Z,120
2018-07-11T08:34:45.012Z,115
2018-07-11T08:35:25.402Z,115
2018-07-11T08:36:06.015Z,115
2018-07-11T08:36:46.601Z,115
2018-07-11T08:37:27.159Z,115
2018-07-11T08:38:07.722Z,120
2018-07-11T08:38:48.284Z,130
2018-07-11T08:39:28.881Z,135
2018-07-11T08:40:09.466Z,140
2018-07-11T08:40:50.043Z,140
2018-07-11T08:41:30.588Z,140
2018-07-11T08:42:11.224Z,135
2018-07-11T08:42:51.763Z,130
2018-07-11T08:43:32.324Z,125
2018-07-11T08:44:12.901Z,115
2018-07-11T08:44:53.454Z,105
2018-07-11T08:45:34.003Z,100
2018-07-11T08:46:14.561Z,95
2018-07-11T08:46:55.148Z,95
2018-07-11T08:47:35.731Z,90
2018-07-11T08:48:16.333Z,85
2018-07-11T08:48:56.849Z,85
2018-07-11T08:49:37.459Z,80
2018-07-11T08:50:18.042Z,80
2018-07-11T08:50:58.602Z,80
2018-07-11T08:51:39.166Z,80
2018-07-11T08:52:19.751Z,80
2018-07-11T08:53:00.763Z,75
2018-07-11T08:53:41.466Z,80
2018-07-11T08:54:22.041Z,80
2018-07-11T08:55:02.657Z,80
2018-07-11T08:55:43.176Z,80
2018-07-11T08:56:23.796Z,85
2018-07-11T08:57:04.367Z,85
2018-07-11T08:57:44.924Z,90
2018-07-11T08:58:25.483Z,90
2018-07-11T08:59:06.035Z,100
2018-07-11T08:59:46.622Z,105
2018-07-11T09:00:27.184Z,110
2018-07-11T09:01:07.753Z,120
2018-07-11T09:01:48.339Z,125
2018-07-11T09:02:28.966Z,130
2018-07-11T09:03:09.535Z,135
2018-07-11T09:03:50.098Z,140
2018-07-11T09:04:30.659Z,145
2018-07-11T09:05:11.230Z,155
2018-07-11T09:05:51.823Z,155
2018-07-11T09:06:32.399Z,165
2018-07-11T09:07:12.973Z,175
2018-07-11T09:07:53.574Z,185
2018-07-11T09:08:34.138Z,215
2018-07-11T09:09:14.719Z,215
2018-07-11T09:09:55.293Z,205
2018-07-11T09:10:35.943Z,200
2018-07-11T09:11:16.451Z,200
2018-07-11T09:11:57.015Z,200
2018-07-11T09:12:37.576Z,155
2018-07-11T09:13:18.191Z,155
2018-07-11T09:13:58.753Z,160
2018-07-11T09:14:39.318Z,165
2018-07-11T09:15:19.880Z,170
2018-07-11T09:16:00.444Z,175
2018-07-11T09:16:41.018Z,185
2018-07-11T09:17:21.588Z,210
2018-07-11T09:18:02.223Z,190
2018-07-11T09:18:42.703Z,205
2018-07-11T09:19:23.260Z,230
2018-07-11T09:20:03.852Z,240
2018-07-11T09:20:44.406Z,245
2018-07-11T09:21:24.989Z,250
2018-07-11T09:22:05.561Z,255
2018-07-11T09:22:46.120Z,250
2018-07-11T09:23:26.681Z,250
2018-07-11T09:24:07.276Z,245
2018-07-11T09:24:47.835Z,240
2018-07-11T09:25:28.395Z,230
2018-07-11T09:26:08.965Z,215
2018-07-11T09:26:49.522Z,205
2018-07-11T09:27:30.081Z,200
2018-07-11T09:28:10.639Z,190
2018-07-11T09:28:51.195Z,170
2018-07-11T09:29:31.754Z,170
2018-07-11T09:30:12.318Z,170
2018-07-11T09:30:52.897Z,160
2018-07-11T09:31:33.460Z,155
2018-07-11T09:32:14.040Z,150
2018-07-11T09:32:54.606Z,150
2018-07-11T09:33:35.179Z,150
2018-07-11T09:34:15.734Z,145
2018-07-11T09:34:56.312Z,145
2018-07-11T09:35:36.884Z,150
2018-07-11T09:36:17.422Z,150
2018-07-11T09:36:57.985Z,150
2018-07-11T09:37:38.672Z,145